Time;durP1;ratioP1;P1;durP2;ratioP2;P2;SDS_P1;SDS_P2;PMS_P1;PMS_P2;Temp;Humidity;BMP_temperature;BMP_pressure;BME280_temperature;BME280_humidity;BME280_pressure;Samples;Min_cycle;Max_cycle;Signal;HPM_P1;HPM_P2
2022/08/05 00:01:12;;;;;;;1.58;0.75;;;19.10;99.90;;;;;;5102128;28;20115;-74
2022/08/05 00:03:37;;;;;;;1.35;0.80;;;19.20;99.90;;;;;;5086409;28;20544;-74
2022/08/05 00:06:03;;;;;;;1.33;0.73;;;19.10;99.90;;;;;;5081667;28;20043;-74
2022/08/05 00:08:28;;;;;;;2.20;1.10;;;19.20;99.90;;;;;;5097917;28;20162;-74
2022/08/05 00:10:54;;;;;;;2.88;0.75;;;19.20;99.90;;;;;;5097841;28;20087;-74
2022/08/05 00:13:20;;;;;;;2.72;0.70;;;19.20;99.90;;;;;;5084962;28;20164;-74
2022/08/05 00:15:45;;;;;;;1.40;0.90;;;19.20;99.90;;;;;;5098647;28;20043;-74
2022/08/05 00:18:11;;;;;;;1.50;0.90;;;19.20;99.90;;;;;;5068746;28;20624;-74
2022/08/05 00:20:37;;;;;;;1.33;0.70;;;19.10;99.90;;;;;;5082478;28;20143;-74
2022/08/05 00:23:02;;;;;;;1.52;0.80;;;19.10;99.90;;;;;;5084489;28;20054;-74
2022/08/05 00:25:28;;;;;;;2.55;0.73;;;19.00;99.90;;;;;;5092978;28;20083;-74
2022/08/05 00:27:53;;;;;;;1.70;0.90;;;19.00;99.90;;;;;;5083914;28;20035;-74
2022/08/05 00:30:19;;;;;;;1.45;0.73;;;19.00;99.90;;;;;;5094918;28;20043;-74
2022/08/05 00:32:44;;;;;;;3.13;0.90;;;19.00;99.90;;;;;;5088768;28;20678;-74
2022/08/05 00:35:10;;;;;;;3.22;0.90;;;19.00;99.90;;;;;;5091652;28;20064;-74
2022/08/05 00:37:36;;;;;;;1.63;1.10;;;19.00;99.90;;;;;;5077935;28;20059;-74
2022/08/05 00:40:02;;;;;;;1.30;0.90;;;19.00;99.90;;;;;;5067865;28;20043;-74
2022/08/05 00:42:35;;;;;;;1.65;0.90;;;19.00;99.90;;;;;;5080546;28;20081;-74
2022/08/05 00:45:03;;;;;;;3.33;1.20;;;19.10;99.90;;;;;;5076589;28;20123;-74
2022/08/05 00:47:29;;;;;;;0.98;0.73;;;19.10;99.90;;;;;;5067133;28;20067;-74
2022/08/05 00:49:54;;;;;;;1.90;0.90;;;19.10;99.90;;;;;;5088957;28;20072;-74
2022/08/05 00:52:20;;;;;;;1.63;0.77;;;19.10;99.90;;;;;;5082629;28;20130;-74
2022/08/05 00:54:46;;;;;;;3.72;0.93;;;19.10;99.90;;;;;;5090771;28;20047;-74
2022/08/05 00:57:11;;;;;;;1.77;0.90;;;19.10;99.90;;;;;;5072007;28;20040;-74
2022/08/05 00:59:37;;;;;;;1.58;0.85;;;19.10;99.90;;;;;;5097146;28;20095;-74
2022/08/05 01:02:03;;;;;;;4.00;1.00;;;19.10;99.90;;;;;;5081504;28;20036;-74
2022/08/05 01:04:28;;;;;;;1.17;0.60;;;19.10;99.90;;;;;;5087485;28;20069;-74
2022/08/05 01:06:54;;;;;;;1.67;0.88;;;19.10;99.90;;;;;;5072564;28;20040;-74
2022/08/05 01:09:20;;;;;;;1.80;0.90;;;19.00;99.90;;;;;;5091489;28;20024;-74
2022/08/05 01:11:49;;;;;;;2.03;0.80;;;19.10;99.90;;;;;;5097297;28;20044;-74
2022/08/05 01:14:33;;;;;;;3.60;1.00;;;19.10;99.90;;;;;;5064725;28;20096;-74
2022/08/05 01:17:04;;;;;;;3.38;1.30;;;19.00;99.90;;;;;;5088492;28;20036;-74
2022/08/05 01:19:39;;;;;;;1.45;0.82;;;19.00;99.90;;;;;;5095940;28;20388;-74
2022/08/05 01:22:17;;;;;;;1.30;0.80;;;19.00;99.90;;;;;;5095660;28;20552;-74
2022/08/05 01:24:49;;;;;;;1.17;0.75;;;18.90;99.90;;;;;;5076001;28;20047;-74
2022/08/05 01:27:39;;;;;;;1.63;0.90;;;18.90;99.90;;;;;;5084145;28;20043;-74
2022/08/05 01:30:05;;;;;;;3.38;1.10;;;18.80;99.90;;;;;;5086423;28;20035;-74
2022/08/05 01:32:35;;;;;;;2.50;0.98;;;18.80;99.90;;;;;;5097985;28;20569;-74
2022/08/05 01:35:07;;;;;;;2.17;1.00;;;18.80;99.90;;;;;;5082932;28;20077;-74
2022/08/05 01:37:44;;;;;;;0.90;0.60;;;18.90;99.90;;;;;;5087900;28;20444;-74
2022/08/05 01:40:11;;;;;;;1.50;0.90;;;18.90;99.90;;;;;;5084562;28;20044;-74
2022/08/05 01:42:39;;;;;;;3.42;1.02;;;18.90;99.90;;;;;;5084160;28;20116;-74
2022/08/05 01:45:07;;;;;;;1.95;0.90;;;18.90;99.90;;;;;;5098623;28;20138;-74
2022/08/05 01:47:34;;;;;;;1.05;0.68;;;18.90;99.90;;;;;;5088821;28;20051;-74
2022/08/05 01:50:04;;;;;;;2.35;0.80;;;18.90;99.90;;;;;;5083952;28;20032;-74
2022/08/05 01:52:33;;;;;;;1.70;0.70;;;18.80;99.90;;;;;;5088999;28;20101;-74
2022/08/05 01:55:04;;;;;;;1.52;1.00;;;18.80;99.90;;;;;;5079932;28;20094;-74
2022/08/05 01:57:38;;;;;;;1.65;0.80;;;18.80;99.90;;;;;;5076090;28;20064;-74
2022/08/05 02:00:05;;;;;;;1.83;0.90;;;18.80;99.90;;;;;;5079866;28;20109;-74
2022/08/05 02:02:32;;;;;;;2.25;0.90;;;18.80;99.90;;;;;;5093484;28;20116;-74
2022/08/05 02:05:03;;;;;;;1.50;0.90;;;18.80;99.90;;;;;;5087958;28;20055;-74
2022/08/05 02:07:31;;;;;;;2.53;0.90;;;18.80;99.90;;;;;;5096494;28;20040;-74
2022/08/05 02:09:58;;;;;;;4.18;0.95;;;18.80;99.90;;;;;;5083462;28;20161;-74
2022/08/05 02:12:43;;;;;;;1.95;0.93;;;18.80;99.90;;;;;;5075952;28;20059;-74
2022/08/05 02:15:14;;;;;;;;;;;18.80;99.90;;;;;;5081061;28;20039;-74
2022/08/05 02:17:51;;;;;;;1.25;0.70;;;18.80;99.90;;;;;;5078047;28;20304;-74
2022/08/05 02:20:21;;;;;;;1.25;0.88;;;18.80;99.90;;;;;;5090757;28;20057;-74
2022/08/05 02:22:54;;;;;;;2.38;1.00;;;18.80;99.90;;;;;;5088947;28;20071;-74
2022/08/05 02:25:34;;;;;;;2.30;0.75;;;18.80;99.90;;;;;;5076458;28;20042;-74
2022/08/05 02:28:02;;;;;;;1.27;0.75;;;18.80;99.90;;;;;;5083658;28;20081;-74
2022/08/05 02:30:43;;;;;;;2.20;0.80;;;18.80;99.90;;;;;;5085397;28;20072;-74
2022/08/05 02:33:10;;;;;;;1.27;0.80;;;18.80;99.90;;;;;;5077733;28;20039;-74
2022/08/05 02:35:37;;;;;;;2.08;0.70;;;18.90;99.90;;;;;;5093099;28;20766;-74
2022/08/05 02:38:03;;;;;;;1.42;0.75;;;18.90;99.90;;;;;;5090794;28;20039;-74
2022/08/05 02:40:31;;;;;;;1.60;1.00;;;18.80;99.90;;;;;;5086898;28;20050;-74
2022/08/05 02:42:57;;;;;;;1.10;0.70;;;18.80;99.90;;;;;;5080154;28;20055;-74
2022/08/05 02:45:24;;;;;;;1.40;0.73;;;18.80;99.90;;;;;;5074623;28;20028;-74
2022/08/05 02:47:53;;;;;;;2.22;0.68;;;18.80;99.90;;;;;;5080577;28;20117;-74
2022/08/05 02:50:21;;;;;;;1.67;0.98;;;18.80;99.90;;;;;;5092290;28;20028;-74
2022/08/05 02:52:47;;;;;;;3.08;0.57;;;18.70;99.90;;;;;;5080017;28;20497;-74
2022/08/05 02:55:13;;;;;;;1.45;0.75;;;18.70;99.90;;;;;;5068472;28;20036;-74
2022/08/05 02:57:40;;;;;;;1.25;0.82;;;18.70;99.90;;;;;;5075364;28;20068;-74
2022/08/05 03:00:07;;;;;;;1.92;0.90;;;18.60;99.90;;;;;;5075828;28;20126;-74
2022/08/05 03:02:37;;;;;;;1.05;0.60;;;18.60;99.90;;;;;;5080784;28;20092;-74
2022/08/05 03:05:06;;;;;;;1.60;0.80;;;18.60;99.90;;;;;;5082289;28;20087;-74
2022/08/05 03:07:33;;;;;;;2.28;0.85;;;18.60;99.90;;;;;;5093093;28;20485;-74
2022/08/05 03:09:59;;;;;;;1.50;0.90;;;18.60;99.90;;;;;;5069164;28;20107;-74
2022/08/05 03:12:37;;;;;;;1.00;0.70;;;18.60;99.90;;;;;;5068781;28;20123;-74
2022/08/05 03:15:06;;;;;;;1.33;0.80;;;18.70;99.90;;;;;;5065245;28;20532;-74
2022/08/05 03:17:31;;;;;;;1.58;0.77;;;18.60;99.90;;;;;;5088600;28;20457;-74
2022/08/05 03:19:57;;;;;;;1.13;0.80;;;18.70;99.90;;;;;;5085752;28;20086;-74
2022/08/05 03:22:23;;;;;;;3.78;1.10;;;18.60;99.90;;;;;;5088662;28;20052;-74
2022/08/05 03:24:50;;;;;;;1.35;0.90;;;18.60;99.90;;;;;;5088378;28;20031;-74
2022/08/05 03:27:16;;;;;;;1.23;0.68;;;18.60;99.90;;;;;;5085032;28;20031;-74
2022/08/05 03:29:42;;;;;;;2.10;0.98;;;18.60;99.90;;;;;;5080517;28;20042;-74
2022/08/05 03:32:09;;;;;;;4.85;0.90;;;18.60;99.90;;;;;;5070868;28;20613;-74
2022/08/05 03:34:35;;;;;;;2.63;0.93;;;18.50;99.90;;;;;;5081711;28;20036;-74
2022/08/05 03:37:02;;;;;;;1.27;0.80;;;18.50;99.90;;;;;;5085545;28;20042;-74
2022/08/05 03:39:28;;;;;;;1.80;0.88;;;18.50;99.90;;;;;;5074663;28;20047;-74
2022/08/05 03:41:54;;;;;;;1.77;0.80;;;18.50;99.90;;;;;;5078613;28;20047;-74
2022/08/05 03:44:20;;;;;;;1.20;0.88;;;18.50;99.90;;;;;;5093373;28;20512;-74
2022/08/05 03:46:46;;;;;;;3.25;0.90;;;18.50;99.90;;;;;;5079370;28;20032;-74
2022/08/05 03:49:11;;;;;;;1.25;0.82;;;18.50;99.90;;;;;;5078335;28;20089;-74
2022/08/05 03:51:55;;;;;;;0.95;0.68;;;18.50;99.90;;;;;;5097528;28;20455;-74
2022/08/05 03:55:05;;;;;;;1.40;0.52;;;18.50;99.90;;;;;;5082514;28;20126;-74
2022/08/05 03:57:32;;;;;;;1.50;1.02;;;18.50;99.90;;;;;;5077535;28;20044;-74
2022/08/05 04:00:13;;;;;;;1.50;0.80;;;18.40;99.90;;;;;;5099941;28;20050;-74
2022/08/05 04:02:41;;;;;;;1.20;0.90;;;18.50;99.90;;;;;;5079942;28;20138;-74
2022/08/05 04:05:09;;;;;;;1.05;0.77;;;18.40;99.90;;;;;;5100321;28;20620;-74
2022/08/05 04:07:36;;;;;;;1.38;1.00;;;18.40;99.90;;;;;;5101682;28;20130;-74
2022/08/05 04:10:02;;;;;;;1.67;1.00;;;18.40;99.90;;;;;;5071125;28;20115;-74
2022/08/05 04:12:28;;;;;;;0.98;0.60;;;18.40;99.90;;;;;;5079423;28;20039;-74
2022/08/05 04:14:54;;;;;;;1.52;0.80;;;18.40;99.90;;;;;;5094939;28;20048;-74
2022/08/05 04:17:20;;;;;;;1.67;0.93;;;18.40;99.90;;;;;;5067704;28;20401;-74
2022/08/05 04:19:47;;;;;;;1.98;0.98;;;18.40;99.90;;;;;;5097593;28;20113;-74
2022/08/05 04:22:13;;;;;;;1.50;1.00;;;18.30;99.90;;;;;;5066936;28;20048;-74
2022/08/05 04:24:44;;;;;;;2.47;0.90;;;18.40;99.90;;;;;;5087513;28;20042;-74
2022/08/05 04:27:11;;;;;;;1.67;0.90;;;18.40;99.90;;;;;;5094659;28;20040;-74
2022/08/05 04:29:37;;;;;;;1.38;0.80;;;18.30;99.90;;;;;;5092557;28;20118;-74
2022/08/05 04:32:03;;;;;;;1.55;0.90;;;18.40;99.90;;;;;;5086939;28;20189;-74
2022/08/05 04:34:28;;;;;;;1.50;0.80;;;18.40;99.90;;;;;;5097088;28;20039;-74
2022/08/05 04:36:54;;;;;;;3.60;1.08;;;18.40;99.90;;;;;;5088035;28;20040;-74
2022/08/05 04:39:20;;;;;;;1.42;0.93;;;18.40;99.90;;;;;;5084879;28;20036;-74
2022/08/05 04:41:46;;;;;;;1.83;0.90;;;18.40;99.90;;;;;;5085436;28;20491;-74
2022/08/05 04:44:12;;;;;;;1.63;0.98;;;18.30;99.90;;;;;;5083408;28;20059;-74
2022/08/05 04:46:38;;;;;;;1.73;1.10;;;18.20;99.90;;;;;;5079238;28;20062;-74
2022/08/05 04:49:05;;;;;;;1.80;1.00;;;18.20;99.90;;;;;;5098746;28;20077;-74
2022/08/05 04:51:31;;;;;;;4.10;1.02;;;18.20;99.90;;;;;;5085451;28;20493;-74
2022/08/05 04:53:57;;;;;;;6.22;1.33;;;18.20;99.90;;;;;;5096791;28;20048;-74
2022/08/05 04:56:23;;;;;;;2.38;1.00;;;18.20;99.90;;;;;;5088262;28;20088;-75
2022/08/05 04:58:48;;;;;;;3.22;1.50;;;18.20;99.90;;;;;;5079270;28;20043;-74
2022/08/05 05:01:14;;;;;;;2.10;1.10;;;18.20;99.90;;;;;;5091462;28;20055;-74
2022/08/05 05:03:40;;;;;;;1.88;1.05;;;18.10;99.90;;;;;;5093504;28;20036;-74
2022/08/05 05:06:09;;;;;;;2.10;0.93;;;18.20;99.90;;;;;;5086060;28;21175;-74
2022/08/05 05:08:35;;;;;;;2.65;0.90;;;18.10;99.90;;;;;;5074191;28;20128;-74
2022/08/05 05:11:01;;;;;;;3.30;1.40;;;18.10;99.90;;;;;;5080360;28;20040;-74
2022/08/05 05:13:27;;;;;;;3.63;1.00;;;18.20;99.90;;;;;;5097441;27;20051;-75
2022/08/05 05:15:52;;;;;;;1.80;0.95;;;18.00;99.90;;;;;;5077681;28;20038;-74
2022/08/05 05:18:18;;;;;;;1.67;0.95;;;18.10;99.90;;;;;;5095891;28;20505;-74
2022/08/05 05:20:45;;;;;;;1.35;1.02;;;18.10;99.90;;;;;;5090977;28;20058;-74
2022/08/05 05:23:12;;;;;;;2.40;1.25;;;18.10;99.90;;;;;;5089381;28;20428;-74
2022/08/05 05:25:40;;;;;;;2.63;1.48;;;18.10;99.90;;;;;;5080757;28;20028;-74
2022/08/05 05:28:06;;;;;;;1.50;0.90;;;18.10;99.90;;;;;;5096188;28;20119;-74
2022/08/05 05:30:31;;;;;;;2.50;1.65;;;18.10;99.90;;;;;;5093232;28;20130;-74
2022/08/05 05:33:02;;;;;;;1.77;1.23;;;18.10;99.90;;;;;;5093187;28;20048;-74
2022/08/05 05:35:32;;;;;;;1.38;0.77;;;18.10;99.90;;;;;;5079674;28;20048;-74
2022/08/05 05:38:00;;;;;;;2.15;1.10;;;18.10;99.90;;;;;;5078695;28;20047;-74
2022/08/05 05:40:26;;;;;;;1.75;1.17;;;18.10;99.90;;;;;;5093703;28;20173;-74
2022/08/05 05:42:52;;;;;;;2.22;0.90;;;18.10;99.90;;;;;;5084220;28;20036;-74
2022/08/05 05:45:19;;;;;;;2.55;1.00;;;18.10;99.90;;;;;;5096176;28;20042;-74
2022/08/05 05:47:45;;;;;;;5.30;1.45;;;18.10;99.90;;;;;;5070202;28;20677;-74
2022/08/05 05:50:13;;;;;;;2.08;1.00;;;18.10;99.90;;;;;;5098857;28;20034;-74
2022/08/05 05:52:39;;;;;;;3.38;0.85;;;18.10;99.90;;;;;;5075669;28;20809;-74
2022/08/05 05:55:08;;;;;;;1.60;0.98;;;18.10;99.90;;;;;;5092112;28;20050;-74
2022/08/05 05:57:34;;;;;;;1.65;0.95;;;18.10;99.90;;;;;;5082925;28;20070;-75
2022/08/05 06:00:00;;;;;;;1.48;0.88;;;18.20;99.90;;;;;;5090385;28;20097;-75
2022/08/05 06:02:25;;;;;;;1.83;1.08;;;18.20;99.90;;;;;;5075727;28;20529;-74
2022/08/05 06:04:51;;;;;;;1.40;1.02;;;18.20;99.90;;;;;;5099971;28;20501;-74
2022/08/05 06:07:17;;;;;;;2.35;1.20;;;18.10;99.90;;;;;;5078654;28;20097;-74
2022/08/05 06:09:43;;;;;;;4.95;1.20;;;18.20;99.90;;;;;;5099539;28;20117;-74
2022/08/05 06:12:09;;;;;;;3.72;1.08;;;18.20;99.90;;;;;;5081497;28;20079;-74
2022/08/05 06:14:34;;;;;;;1.13;0.85;;;18.30;99.90;;;;;;5089956;28;20047;-74
2022/08/05 06:17:01;;;;;;;2.03;1.08;;;18.30;99.90;;;;;;5088520;28;20031;-74
2022/08/05 06:19:26;;;;;;;2.58;0.90;;;18.30;99.90;;;;;;5081284;28;20485;-74
2022/08/05 06:21:52;;;;;;;2.25;1.10;;;18.30;99.90;;;;;;5066847;28;20047;-74
2022/08/05 06:24:18;;;;;;;3.22;1.10;;;18.40;99.90;;;;;;5092177;28;20028;-74
2022/08/05 06:26:44;;;;;;;2.58;1.10;;;18.40;99.90;;;;;;5095277;28;20039;-74
2022/08/05 06:29:09;;;;;;;6.35;1.42;;;18.50;99.90;;;;;;5068959;28;20040;-71
2022/08/05 06:31:36;;;;;;;1.27;0.90;;;18.50;99.90;;;;;;5094863;28;20043;-75
2022/08/05 06:34:02;;;;;;;1.95;0.82;;;18.60;99.90;;;;;;5073388;28;20044;-74
2022/08/05 06:36:28;;;;;;;2.85;1.10;;;18.60;99.90;;;;;;5083855;28;20032;-74
2022/08/05 06:38:54;;;;;;;0.85;0.60;;;18.70;99.90;;;;;;5091389;28;20988;-75
2022/08/05 06:41:20;;;;;;;2.70;0.68;;;18.70;99.90;;;;;;5084677;28;20032;-69
2022/08/05 06:43:46;;;;;;;1.30;0.80;;;18.70;99.90;;;;;;5080847;28;20039;-75
2022/08/05 06:46:12;;;;;;;1.40;0.93;;;18.70;99.90;;;;;;5082937;28;20105;-75
2022/08/05 06:48:38;;;;;;;1.20;0.70;;;18.70;99.90;;;;;;5076327;28;20135;-75
2022/08/05 06:51:04;;;;;;;1.45;0.80;;;18.80;99.90;;;;;;5066185;28;20063;-76
2022/08/05 06:53:29;;;;;;;1.90;1.00;;;18.80;99.90;;;;;;5079882;28;20044;-76
2022/08/05 06:55:57;;;;;;;6.10;1.08;;;18.80;99.90;;;;;;5073167;28;20043;-75
2022/08/05 06:58:24;;;;;;;1.55;0.80;;;18.90;99.90;;;;;;5086965;28;20048;-75
2022/08/05 07:00:50;;;;;;;2.30;1.08;;;18.90;99.90;;;;;;5062443;28;20052;-75
2022/08/05 07:03:15;;;;;;;1.42;0.85;;;18.80;99.90;;;;;;5078636;28;20169;-76
2022/08/05 07:05:41;;;;;;;1.67;0.80;;;18.90;99.90;;;;;;5081311;28;20047;-75
2022/08/05 07:08:07;;;;;;;1.30;0.80;;;18.90;99.90;;;;;;5083901;28;20036;-75
2022/08/05 07:10:32;;;;;;;2.63;0.80;;;18.90;99.90;;;;;;5083114;28;20401;-74
2022/08/05 07:18:40;;;;;;;5.03;1.10;;;19.00;99.90;;;;;;5057354;28;20048;-76
2022/08/05 07:21:06;;;;;;;1.55;0.90;;;19.00;99.90;;;;;;5078507;28;20054;-75
2022/08/05 07:23:32;;;;;;;0.80;0.60;;;19.00;99.90;;;;;;5081857;28;20040;-75
2022/08/05 07:25:58;;;;;;;0.60;0.47;;;19.10;99.90;;;;;;5074449;28;20112;-77
2022/08/05 07:28:24;;;;;;;2.63;0.65;;;19.00;99.90;;;;;;5073277;28;20126;-76
2022/08/05 07:30:49;;;;;;;1.83;0.70;;;19.10;99.90;;;;;;5088812;28;20060;-74
2022/08/05 07:33:15;;;;;;;0.70;0.50;;;19.10;99.90;;;;;;5080482;28;20067;-76
2022/08/05 07:35:40;;;;;;;1.27;0.60;;;19.20;99.90;;;;;;5082184;28;20039;-75
2022/08/05 07:38:06;;;;;;;1.30;0.70;;;19.20;99.90;;;;;;5086648;28;21154;-75
2022/08/05 07:40:32;;;;;;;1.60;0.68;;;19.20;99.90;;;;;;5085782;28;20552;-75
2022/08/05 07:42:57;;;;;;;0.68;0.50;;;19.20;99.90;;;;;;5097501;28;20046;-75
2022/08/05 07:45:23;;;;;;;2.88;1.08;;;19.30;99.90;;;;;;5090812;28;20060;-75
2022/08/05 07:47:49;;;;;;;1.30;0.60;;;19.30;99.90;;;;;;5076440;28;20397;-75
2022/08/05 07:50:15;;;;;;;2.08;0.60;;;19.40;99.90;;;;;;5115691;27;20673;-75
2022/08/05 07:52:42;;;;;;;0.85;0.50;;;19.50;99.90;;;;;;5081858;28;20172;-75
2022/08/05 07:55:08;;;;;;;0.60;0.40;;;19.50;99.90;;;;;;5088067;28;20035;-74
2022/08/05 07:57:33;;;;;;;0.55;0.40;;;19.60;99.90;;;;;;5085883;28;20040;-75
2022/08/05 07:59:59;;;;;;;0.40;0.30;;;19.60;99.90;;;;;;5094717;28;21087;-75
2022/08/05 08:02:27;;;;;;;1.08;0.50;;;19.70;99.90;;;;;;5067394;28;20064;-75
2022/08/05 08:04:53;;;;;;;1.45;0.50;;;19.80;99.90;;;;;;5085593;28;20177;-75
2022/08/05 08:07:19;;;;;;;0.35;0.30;;;19.80;99.90;;;;;;5082861;28;20028;-75
2022/08/05 08:09:46;;;;;;;1.05;0.50;;;19.80;99.90;;;;;;5076587;28;20036;-75
2022/08/05 08:12:12;;;;;;;0.50;0.40;;;20.00;99.90;;;;;;5061000;28;20059;-75
2022/08/05 08:14:38;;;;;;;1.00;0.50;;;20.00;99.90;;;;;;5083434;28;20059;-74
2022/08/05 08:17:09;;;;;;;0.88;0.30;;;20.10;99.90;;;;;;5080603;28;20131;-75
2022/08/05 08:19:38;;;;;;;1.08;0.40;;;20.10;99.90;;;;;;5075291;28;20184;-75
2022/08/05 08:22:04;;;;;;;0.77;0.43;;;20.10;99.90;;;;;;5097765;27;20047;-75
2022/08/05 08:24:31;;;;;;;1.08;0.60;;;20.20;99.70;;;;;;5076355;28;20044;-75
2022/08/05 08:26:57;;;;;;;0.40;0.20;;;20.20;99.50;;;;;;5089355;28;20109;-75
2022/08/05 08:29:22;;;;;;;0.80;0.35;;;20.20;99.20;;;;;;5075410;28;20035;-74
2022/08/05 08:31:49;;;;;;;1.15;0.40;;;20.10;99.30;;;;;;5071434;28;20032;-75
2022/08/05 08:34:16;;;;;;;0.40;0.30;;;20.10;98.90;;;;;;5061200;28;20178;-75
2022/08/05 08:36:41;;;;;;;2.35;0.47;;;20.00;98.40;;;;;;5065897;28;20070;-74
2022/08/05 08:39:07;;;;;;;1.05;0.43;;;20.00;98.80;;;;;;5077244;28;20288;-74
2022/08/05 08:41:35;;;;;;;0.68;0.50;;;20.10;98.60;;;;;;5086014;28;20443;-76
2022/08/05 08:44:02;;;;;;;0.45;0.30;;;20.10;98.50;;;;;;5077940;28;20161;-76
2022/08/05 08:46:30;;;;;;;0.70;0.50;;;20.10;98.00;;;;;;5079123;28;20047;-76
2022/08/05 08:48:57;;;;;;;0.57;0.32;;;20.10;97.90;;;;;;5081107;28;20118;-76
2022/08/05 08:51:26;;;;;;;0.50;0.40;;;20.20;98.00;;;;;;5073393;28;20040;-74
2022/08/05 08:53:52;;;;;;;0.70;0.30;;;20.20;97.90;;;;;;5079441;28;20040;-75
2022/08/05 08:56:19;;;;;;;0.40;0.30;;;20.20;98.10;;;;;;5077373;28;20212;-74
2022/08/05 08:58:46;;;;;;;0.40;0.35;;;20.30;97.90;;;;;;5082785;28;20074;-73
2022/08/05 09:01:12;;;;;;;3.08;0.55;;;20.30;97.80;;;;;;5078359;28;20051;-76
2022/08/05 09:03:39;;;;;;;1.65;0.40;;;20.40;97.40;;;;;;5075185;28;20586;-77
2022/08/05 09:06:05;;;;;;;0.57;0.22;;;20.50;96.50;;;;;;5076872;28;20040;-78
2022/08/05 09:08:30;;;;;;;3.08;0.52;;;20.40;96.00;;;;;;5083877;28;20043;-77
2022/08/05 09:10:56;;;;;;;0.32;0.25;;;20.40;95.70;;;;;;5075630;28;20051;-77
2022/08/05 09:13:22;;;;;;;0.50;0.35;;;20.50;95.60;;;;;;5092452;28;20925;-78
2022/08/05 09:15:48;;;;;;;0.70;0.32;;;20.50;95.30;;;;;;5079761;28;20035;-65
2022/08/05 09:18:14;;;;;;;0.57;0.43;;;20.50;94.80;;;;;;5084266;28;20047;-70
2022/08/05 09:20:43;;;;;;;0.55;0.30;;;20.60;94.60;;;;;;5096041;28;20083;-80
2022/08/05 09:23:16;;;;;;;2.13;0.20;;;20.60;94.50;;;;;;5081843;28;20047;-75
2022/08/05 09:25:44;;;;;;;0.65;0.20;;;20.60;93.50;;;;;;5099214;28;20079;-71
2022/08/05 09:28:19;;;;;;;0.20;0.20;;;20.60;93.70;;;;;;5080289;28;20054;-78
2022/08/05 09:31:08;;;;;;;1.02;0.38;;;20.60;93.10;;;;;;5077770;28;20035;-76
2022/08/05 09:33:52;;;;;;;1.65;0.45;;;20.60;93.00;;;;;;5083485;28;20050;-79
2022/08/05 09:36:18;;;;;;;0.20;0.20;;;20.70;92.20;;;;;;5076885;28;20036;-77
2022/08/05 09:39:02;;;;;;;0.32;0.30;;;20.70;93.40;;;;;;5076834;28;20320;-78
2022/08/05 09:41:28;;;;;;;0.10;0.10;;;20.60;91.80;;;;;;5075097;28;20058;-77
2022/08/05 09:43:54;;;;;;;0.15;0.13;;;20.50;92.90;;;;;;5071427;28;20036;-78
2022/08/05 09:46:31;;;;;;;0.50;0.20;;;20.50;93.00;;;;;;5057945;28;20516;-77
2022/08/05 09:49:03;;;;;;;0.73;0.20;;;20.50;91.60;;;;;;5089041;28;20485;-79
2022/08/05 09:51:37;;;;;;;0.38;0.30;;;20.60;92.70;;;;;;5090083;27;20075;-77
2022/08/05 09:54:07;;;;;;;0.00;0.00;;;20.60;90.80;;;;;;5095316;28;20464;-79
2022/08/05 09:56:34;;;;;;;0.10;0.10;;;20.60;91.50;;;;;;5079888;28;20044;-78
2022/08/05 09:59:06;;;;;;;0.52;0.38;;;20.70;90.90;;;;;;5069086;28;20044;-77
2022/08/05 10:01:34;;;;;;;0.20;0.17;;;20.70;90.30;;;;;;5075841;28;20489;-77
2022/08/05 10:04:12;;;;;;;0.63;0.30;;;20.70;89.70;;;;;;5062919;28;20039;-77
2022/08/05 10:06:57;;;;;;;0.15;0.13;;;20.70;87.20;;;;;;5080690;28;20040;-72
2022/08/05 10:09:23;;;;;;;3.17;0.30;;;20.70;83.60;;;;;;5079355;28;20032;-76
2022/08/05 10:11:49;;;;;;;0.25;0.17;;;20.80;88.70;;;;;;5059661;28;20032;-77
2022/08/05 10:14:30;;;;;;;0.38;0.28;;;20.90;88.50;;;;;;5077346;28;20545;-77
2022/08/05 10:17:10;;;;;;;0.22;0.15;;;20.90;85.40;;;;;;5068334;28;20040;-76
2022/08/05 10:19:37;;;;;;;0.15;0.10;;;21.00;86.30;;;;;;5090737;28;20036;-77
2022/08/05 10:22:02;;;;;;;0.30;0.20;;;21.00;84.60;;;;;;5066412;28;20044;-77
2022/08/05 10:24:31;;;;;;;1.00;0.30;;;20.90;84.60;;;;;;5079429;28;20036;-76
2022/08/05 10:26:59;;;;;;;1.30;0.30;;;20.90;83.00;;;;;;5078451;28;20052;-77
2022/08/05 10:29:32;;;;;;;1.92;0.50;;;20.90;85.00;;;;;;5072974;28;20039;-76
2022/08/05 10:31:58;;;;;;;0.20;0.20;;;20.90;84.70;;;;;;5095068;28;20048;-77
2022/08/05 10:34:24;;;;;;;0.17;0.10;;;20.90;82.20;;;;;;5074930;28;20036;-77
2022/08/05 10:36:50;;;;;;;1.40;0.17;;;20.90;82.50;;;;;;5075339;28;20040;-76
2022/08/05 10:39:20;;;;;;;0.28;0.20;;;20.90;81.80;;;;;;5078582;28;20051;-77
2022/08/05 10:42:06;;;;;;;0.52;0.20;;;20.90;82.40;;;;;;5072963;28;22095;-77
2022/08/05 10:44:33;;;;;;;0.13;0.10;;;20.90;78.10;;;;;;5078313;28;20462;-76
2022/08/05 10:47:09;;;;;;;0.10;0.10;;;20.90;81.80;;;;;;5091371;28;20101;-77
2022/08/05 10:49:59;;;;;;;0.55;0.17;;;20.90;79.70;;;;;;5073351;28;20566;-76
2022/08/05 10:52:42;;;;;;;1.55;0.35;;;20.90;74.90;;;;;;5093059;28;20501;-77
2022/08/05 10:55:13;;;;;;;1.10;0.20;;;20.80;77.00;;;;;;5059075;28;20738;-72
2022/08/05 10:57:44;;;;;;;0.20;0.10;;;20.90;78.90;;;;;;5098631;28;20060;-70
2022/08/05 11:00:11;;;;;;;0.03;0.00;;;20.90;77.50;;;;;;5079868;28;20404;-77
2022/08/05 11:02:36;;;;;;;0.10;0.10;;;21.00;77.60;;;;;;5060339;28;20147;-75
2022/08/05 11:05:09;;;;;;;0.10;0.10;;;21.00;74.70;;;;;;5090688;28;20123;-77
2022/08/05 11:07:58;;;;;;;0.15;0.15;;;21.00;70.20;;;;;;5076516;28;20040;-76
2022/08/05 11:10:26;;;;;;;0.15;0.10;;;21.00;58.20;;;;;;5079591;28;20085;-76
2022/08/05 11:12:52;;;;;;;0.10;0.05;;;20.90;69.70;;;;;;5087694;28;20043;-76
2022/08/05 11:15:31;;;;;;;0.10;0.10;;;20.90;69.20;;;;;;5087781;28;20417;-76
2022/08/05 11:18:24;;;;;;;0.60;0.15;;;20.90;63.70;;;;;;5084711;28;20050;-76
2022/08/05 11:20:51;;;;;;;0.60;0.20;;;20.90;59.60;;;;;;5095629;28;20094;-76
2022/08/05 11:23:46;;;;;;;0.35;0.13;;;20.90;68.20;;;;;;5084352;28;20489;-76
2022/08/05 11:26:21;;;;;;;0.38;0.10;;;20.90;63.70;;;;;;5080358;28;20040;-74
2022/08/05 11:28:51;;;;;;;0.47;0.10;;;21.00;60.30;;;;;;5066792;28;20139;-76
2022/08/05 11:31:18;;;;;;;0.52;0.10;;;21.00;60.40;;;;;;5084684;28;20103;-77
2022/08/05 11:33:47;;;;;;;0.10;0.08;;;21.00;63.80;;;;;;5080973;28;20122;-75
2022/08/05 11:36:15;;;;;;;4.75;0.20;;;21.10;59.70;;;;;;5092252;28;20048;-77
2022/08/05 11:38:41;;;;;;;0.13;0.10;;;21.10;60.00;;;;;;5094292;27;20067;-78
2022/08/05 11:41:14;;;;;;;0.30;0.10;;;21.10;60.70;;;;;;5081328;28;20580;-78
2022/08/05 11:43:51;;;;;;;0.43;0.17;;;21.20;59.30;;;;;;5096117;28;20266;-77
2022/08/05 11:46:17;;;;;;;0.20;0.20;;;21.20;57.90;;;;;;5084150;28;20657;-77
2022/08/05 11:48:43;;;;;;;0.00;0.00;;;21.20;59.30;;;;;;5090918;28;20061;-76
2022/08/05 11:51:09;;;;;;;0.17;0.00;;;21.20;59.60;;;;;;5090342;28;20051;-77
2022/08/05 11:53:35;;;;;;;0.00;0.00;;;21.30;58.70;;;;;;5085866;28;20185;-77
2022/08/05 11:56:01;;;;;;;0.25;0.05;;;21.10;59.20;;;;;;5087338;28;20070;-77
2022/08/05 11:58:34;;;;;;;0.00;0.00;;;21.10;59.50;;;;;;5107865;28;20048;-77
2022/08/05 12:01:04;;;;;;;0.88;0.05;;;21.10;57.00;;;;;;5090376;28;20036;-77
2022/08/05 12:03:39;;;;;;;0.10;0.10;;;21.10;59.30;;;;;;5090038;28;20040;-77
2022/08/05 12:06:04;;;;;;;0.00;0.00;;;21.10;60.40;;;;;;5107589;28;20036;-78
2022/08/05 12:08:30;;;;;;;0.08;0.03;;;21.20;59.00;;;;;;5106308;28;20032;-77
2022/08/05 12:10:59;;;;;;;0.10;0.10;;;21.20;59.80;;;;;;5104369;28;20048;-77
2022/08/05 12:13:25;;;;;;;0.17;0.10;;;21.20;59.30;;;;;;5066078;28;20548;-77
2022/08/05 12:15:50;;;;;;;0.10;0.10;;;21.20;60.00;;;;;;5107348;28;20135;-77
2022/08/05 12:18:17;;;;;;;0.00;0.00;;;21.20;60.40;;;;;;5102333;28;20040;-78
2022/08/05 12:20:43;;;;;;;1.65;0.38;;;21.10;60.20;;;;;;5088494;28;20097;-77
2022/08/05 12:23:10;;;;;;;0.17;0.10;;;21.30;60.70;;;;;;5106265;28;20064;-77
2022/08/05 12:25:54;;;;;;;3.25;0.30;;;21.30;60.70;;;;;;5090046;28;20482;-77
2022/08/05 12:28:33;;;;;;;0.15;0.10;;;21.20;58.80;;;;;;5107289;28;20417;-77
2022/08/05 12:30:59;;;;;;;0.10;0.10;;;21.30;59.40;;;;;;5064799;28;20064;-76
2022/08/05 12:33:26;;;;;;;0.10;0.10;;;21.30;61.40;;;;;;5104221;28;20496;-77
2022/08/05 12:35:53;;;;;;;0.30;0.20;;;21.40;60.70;;;;;;5090047;28;20504;-77
2022/08/05 12:38:21;;;;;;;0.20;0.20;;;21.40;59.40;;;;;;5106231;28;20104;-77
2022/08/05 12:40:46;;;;;;;0.40;0.20;;;21.40;59.20;;;;;;5086978;28;20036;-77
2022/08/05 12:43:12;;;;;;;0.00;0.00;;;21.50;59.30;;;;;;5089945;28;20085;-77
2022/08/05 12:45:49;;;;;;;0.52;0.10;;;21.50;59.30;;;;;;5088817;28;20039;-77
2022/08/05 12:48:15;;;;;;;0.35;0.10;;;21.50;58.20;;;;;;5069593;28;20064;-76
2022/08/05 12:50:41;;;;;;;0.20;0.10;;;21.30;59.90;;;;;;5069216;28;20498;-76
2022/08/05 12:53:06;;;;;;;0.50;0.22;;;21.10;61.10;;;;;;5085709;28;20488;-76
2022/08/05 12:55:33;;;;;;;0.47;0.10;;;21.10;61.80;;;;;;5105049;28;20043;-76
2022/08/05 12:57:59;;;;;;;0.20;0.10;;;21.10;62.30;;;;;;5089955;28;20481;-77
2022/08/05 13:00:28;;;;;;;1.27;0.15;;;21.00;62.50;;;;;;5105564;28;20048;-76